TAF LDLO 260619Z 2607/2706 05005KT CAVOK
                 TX22/2613Z TN15/2704Z
           BECMG 2611/2613 15012KT=
TAF AMD LDLO 251900Z 2519/2612 CNL=
TAF LDLO 251125Z 2512/2612 16007KT CAVOK
                 TX24/2512Z TN17/2602Z=
TAF LDLO 250606Z 2507/2606 15006KT CAVOK
                 TX23/2512Z TN18/2600Z=
TAF AMD LDLO 241900Z 2419/2512 CNL=